createdAt,value
2022-08-18T00:03:56.937Z,53.63
2022-08-18T00:08:55.586Z,53.60
2022-08-18T00:14:01.519Z,53.53
2022-08-18T00:19:09.376Z,53.37
2022-08-18T00:24:13.881Z,53.50
2022-08-18T00:29:19.759Z,53.87
2022-08-18T00:34:25.177Z,52.77
2022-08-18T00:39:34.297Z,53.73
2022-08-18T00:44:39.479Z,53.65
2022-08-18T00:49:48.544Z,53.57
2022-08-18T00:54:55.982Z,54.23
2022-08-18T01:00:06.259Z,53.43
2022-08-18T01:05:18.201Z,52.70
2022-08-18T01:10:24.875Z,53.70
2022-08-18T01:15:30.787Z,53.47
2022-08-18T01:20:57.135Z,53.33
2022-08-18T01:26:04.746Z,53.13
2022-08-18T01:31:13.610Z,52.80
2022-08-18T01:36:21.770Z,52.97
2022-08-18T01:41:30.858Z,52.57
2022-08-18T01:46:36.213Z,53.53
2022-08-18T01:51:43.034Z,54.00
2022-08-18T02:01:55.771Z,52.90
2022-08-18T02:07:04.235Z,53.10
2022-08-18T02:12:10.674Z,54.30
2022-08-18T02:17:16.131Z,53.45
2022-08-18T02:22:22.642Z,53.75
2022-08-18T02:32:34.488Z,53.63
2022-08-18T02:37:42.241Z,52.50
2022-08-18T02:42:48.397Z,52.95
2022-08-18T02:47:55.280Z,52.70
2022-08-18T02:53:03.016Z,52.60
2022-08-18T02:58:08.865Z,53.42
2022-08-18T03:03:14.678Z,53.50
2022-08-18T03:08:22.174Z,54.13
2022-08-18T03:13:27.183Z,53.53
2022-08-18T03:18:32.376Z,53.33
2022-08-18T03:23:39.456Z,53.53
2022-08-18T03:28:47.203Z,53.83
2022-08-18T03:33:54.145Z,52.60
2022-08-18T03:39:00.375Z,53.50
2022-08-18T03:44:06.601Z,53.48
2022-08-18T03:49:12.813Z,53.42
2022-08-18T03:54:19.356Z,52.97
2022-08-18T03:59:27.661Z,52.77
2022-08-18T04:04:32.557Z,53.00
2022-08-18T04:09:39.641Z,52.40
2022-08-18T04:14:48.634Z,53.10
2022-08-18T04:19:57.467Z,53.42
2022-08-18T04:25:02.900Z,53.23
2022-08-18T04:30:09.210Z,52.77
2022-08-18T04:35:15.062Z,52.70
2022-08-18T04:40:25.058Z,52.93
2022-08-18T04:45:27.471Z,53.63
2022-08-18T04:50:32.717Z,52.60
2022-08-18T04:55:39.099Z,53.08
2022-08-18T05:00:45.533Z,54.00
2022-08-18T05:05:50.707Z,52.85
2022-08-18T05:11:04.095Z,53.90
2022-08-18T05:16:11.682Z,53.13
2022-08-18T05:21:16.287Z,53.33
2022-08-18T05:26:21.460Z,53.52
2022-08-18T05:31:28.497Z,53.90
2022-08-18T05:36:56.482Z,54.23
2022-08-18T05:42:14.136Z,54.73
2022-08-18T05:47:28.714Z,54.23
2022-08-18T05:52:36.955Z,55.80
2022-08-18T05:57:50.375Z,55.90
2022-08-18T06:03:04.746Z,55.37
2022-08-18T06:08:14.150Z,55.92
2022-08-18T06:13:20.472Z,55.77
2022-08-18T06:18:52.800Z,56.17
2022-08-18T06:24:19.454Z,55.80
2022-08-18T06:29:52.994Z,55.87
2022-08-18T06:35:04.092Z,56.13
2022-08-18T06:40:10.995Z,56.00
2022-08-18T06:45:18.911Z,57.65
2022-08-18T06:50:33.130Z,58.43
2022-08-18T06:55:47.382Z,58.13
2022-08-18T07:00:56.671Z,57.98
2022-08-18T07:06:14.528Z,58.57
2022-08-18T07:11:33.549Z,57.62
2022-08-18T07:16:57.860Z,58.07
2022-08-18T07:21:48.316Z,57.87
2022-08-18T07:27:15.729Z,57.90
2022-08-18T07:32:23.358Z,57.93
2022-08-18T07:37:34.594Z,65.13
2022-08-18T07:43:01.909Z,57.27
2022-08-18T07:48:37.577Z,57.13
2022-08-18T07:53:56.232Z,56.73
2022-08-18T07:59:07.460Z,57.67
2022-08-18T08:04:25.266Z,58.00
2022-08-18T08:09:51.919Z,57.43
2022-08-18T08:15:17.015Z,58.17
2022-08-18T08:20:33.764Z,56.73
2022-08-18T08:25:54.135Z,57.60
2022-08-18T08:31:37.638Z,57.67
2022-08-18T08:36:30.412Z,58.47
2022-08-18T08:42:00.400Z,58.20
2022-08-18T08:47:08.259Z,58.60
2022-08-18T08:52:20.878Z,58.47
2022-08-18T08:57:32.360Z,58.30
2022-08-18T09:02:48.826Z,58.60
2022-08-18T09:08:17.660Z,58.13
2022-08-18T09:13:29.391Z,58.27
2022-08-18T09:18:59.447Z,58.68
2022-08-18T09:24:11.021Z,59.15
2022-08-18T09:29:26.622Z,57.90
2022-08-18T09:34:51.819Z,58.30
2022-08-18T09:40:44.483Z,57.85
2022-08-18T09:45:36.734Z,58.50
2022-08-18T09:51:18.560Z,57.80
2022-08-18T09:56:54.506Z,58.63
2022-08-18T10:02:06.166Z,58.52
2022-08-18T10:07:24.917Z,59.00
2022-08-18T10:12:52.942Z,58.07
2022-08-18T10:18:20.452Z,58.07
2022-08-18T10:23:49.529Z,57.77
2022-08-18T10:28:58.810Z,58.93
2022-08-18T10:34:24.696Z,57.73
2022-08-18T10:39:22.648Z,59.17
2022-08-18T10:44:31.046Z,58.33
2022-08-18T10:49:38.338Z,58.60
2022-08-18T10:54:54.481Z,58.30
2022-08-18T11:00:13.255Z,58.83
2022-08-18T11:05:21.452Z,59.00
2022-08-18T11:11:06.463Z,58.97
2022-08-18T11:16:13.219Z,58.83
2022-08-18T11:21:42.633Z,58.00
2022-08-18T11:27:00.019Z,57.67
2022-08-18T11:32:11.939Z,58.20
2022-08-18T11:37:51.638Z,58.50
2022-08-18T11:42:57.768Z,58.70
2022-08-18T11:48:21.064Z,58.63
2022-08-18T11:53:35.314Z,60.37
2022-08-18T11:58:50.520Z,59.30
2022-08-18T12:03:57.411Z,59.53
2022-08-18T12:09:54.050Z,58.63
2022-08-18T12:19:35.925Z,58.68
2022-08-18T12:24:43.152Z,58.20
2022-08-18T12:29:50.875Z,59.53
2022-08-18T12:34:56.599Z,61.30
2022-08-18T12:40:02.229Z,60.13
2022-08-18T12:45:08.793Z,58.43
2022-08-18T12:50:13.811Z,60.17
2022-08-18T12:55:21.355Z,63.80
2022-08-18T13:00:28.808Z,59.87
2022-08-18T13:05:34.901Z,58.50
2022-08-18T13:10:46.641Z,58.07
2022-08-18T13:15:58.004Z,58.80
2022-08-18T13:21:00.314Z,57.50
2022-08-18T13:26:08.758Z,57.77
2022-08-18T13:31:16.463Z,57.30
2022-08-18T13:36:22.531Z,58.40
2022-08-18T13:46:33.257Z,58.23
2022-08-18T13:51:38.931Z,57.63
2022-08-18T13:56:51.659Z,58.45
2022-08-18T14:01:53.619Z,57.40
2022-08-18T14:07:01.211Z,57.77
2022-08-18T14:12:15.363Z,57.53
2022-08-18T14:17:16.976Z,58.20
2022-08-18T14:22:41.368Z,58.13
2022-08-18T14:27:56.219Z,57.80
2022-08-18T14:32:55.185Z,57.65
2022-08-18T14:38:02.968Z,58.70
2022-08-18T14:43:10.106Z,58.27
2022-08-18T14:48:18.612Z,57.98
2022-08-18T14:53:26.606Z,58.20
2022-08-18T14:58:33.370Z,58.33
2022-08-18T15:03:40.199Z,58.20
2022-08-18T15:08:46.881Z,58.97
2022-08-18T15:13:55.060Z,58.55
2022-08-18T15:19:01.896Z,58.87
2022-08-18T15:24:26.834Z,59.23
2022-08-18T15:29:32.329Z,59.15
2022-08-18T15:34:46.466Z,58.45
2022-08-18T15:39:45.850Z,59.57
2022-08-18T15:44:53.792Z,57.97
2022-08-18T15:49:59.507Z,59.00
2022-08-18T15:55:08.244Z,58.57
2022-08-18T16:00:17.893Z,59.63
2022-08-18T16:05:24.291Z,58.63
2022-08-18T16:10:33.441Z,58.93
2022-08-18T16:15:41.823Z,58.70
2022-08-18T16:20:47.646Z,59.10
2022-08-18T16:25:56.006Z,58.63
2022-08-18T16:31:02.779Z,58.60
2022-08-18T16:36:10.866Z,58.50
2022-08-18T16:41:17.465Z,58.98
2022-08-18T16:46:26.461Z,59.13
2022-08-18T16:51:31.860Z,59.65
2022-08-18T16:56:38.519Z,59.67
2022-08-18T17:02:02.139Z,59.57
2022-08-18T17:07:08.402Z,59.38
2022-08-18T17:12:14.358Z,61.03
2022-08-18T17:17:20.255Z,59.63
2022-08-18T17:22:26.173Z,59.90
2022-08-18T17:27:37.683Z,59.63
2022-08-18T17:32:47.143Z,69.33
2022-08-18T17:37:57.968Z,64.58
2022-08-18T17:43:03.865Z,59.07
2022-08-18T17:48:21.031Z,60.90
2022-08-18T17:53:26.560Z,59.97
2022-08-18T17:58:35.515Z,62.77
2022-08-18T18:03:41.031Z,60.43
2022-08-18T18:09:04.201Z,60.90
2022-08-18T18:14:28.616Z,61.92
2022-08-18T18:19:36.735Z,61.75
2022-08-18T18:24:44.992Z,60.97
2022-08-18T18:30:03.984Z,59.90
2022-08-18T18:35:27.583Z,60.23
2022-08-18T18:40:35.341Z,59.63
2022-08-18T18:45:41.626Z,61.65
2022-08-18T18:50:55.694Z,61.60
2022-08-18T18:56:19.494Z,60.40
2022-08-18T19:01:31.697Z,60.17
2022-08-18T19:06:48.557Z,59.53
2022-08-18T19:12:12.204Z,60.83
2022-08-18T19:17:26.033Z,60.37
2022-08-18T19:22:49.704Z,60.37
2022-08-18T19:28:04.262Z,60.25
2022-08-18T19:33:14.641Z,59.37
2022-08-18T19:38:28.303Z,59.80
2022-08-18T19:43:56.258Z,59.40
2022-08-18T19:49:16.779Z,59.97
2022-08-18T19:54:33.916Z,59.07
2022-08-18T19:59:48.570Z,59.90
2022-08-18T20:05:11.445Z,59.77
2022-08-18T20:10:41.835Z,59.95
2022-08-18T20:16:10.935Z,59.83
2022-08-18T20:21:22.571Z,59.87
2022-08-18T20:26:40.335Z,59.90
2022-08-18T20:31:51.870Z,60.43
2022-08-18T20:36:59.101Z,60.87
2022-08-18T20:42:07.931Z,59.93
2022-08-18T20:47:47.603Z,59.87
2022-08-18T20:53:17.756Z,60.30
2022-08-18T20:58:28.217Z,59.17
2022-08-18T21:03:42.100Z,59.73
2022-08-18T21:08:53.651Z,58.27
2022-08-18T21:14:04.280Z,58.67
2022-08-18T21:19:14.906Z,59.60
2022-08-18T21:24:29.022Z,58.47
2022-08-18T21:29:46.976Z,59.13
2022-08-18T21:34:45.349Z,59.10
2022-08-18T21:39:56.520Z,58.80
2022-08-18T21:45:02.506Z,58.30
2022-08-18T21:50:14.809Z,58.05
2022-08-18T21:55:31.753Z,58.42
2022-08-18T22:00:42.820Z,58.23
2022-08-18T22:06:02.370Z,58.47
2022-08-18T22:11:59.840Z,58.05
2022-08-18T22:16:42.075Z,58.27
2022-08-18T22:22:02.077Z,57.60
2022-08-18T22:27:12.403Z,58.70
2022-08-18T22:32:21.632Z,58.03
2022-08-18T22:37:30.024Z,57.77
2022-08-18T22:42:35.964Z,57.57
2022-08-18T22:47:44.837Z,57.35
2022-08-18T22:52:50.708Z,58.00
2022-08-18T22:57:57.181Z,57.23
2022-08-18T23:03:03.273Z,58.45
2022-08-18T23:08:08.490Z,57.90
2022-08-18T23:13:14.124Z,57.88
2022-08-18T23:18:21.932Z,57.50
2022-08-18T23:23:29.048Z,57.30
2022-08-18T23:28:34.878Z,57.47
2022-08-18T23:33:41.787Z,57.27
2022-08-18T23:38:47.701Z,56.80
2022-08-18T23:43:53.543Z,57.23
2022-08-18T23:49:01.572Z,57.62
2022-08-18T23:54:10.259Z,56.83
2022-08-18T23:59:18.056Z,56.63
